createdAt,value
2023-04-27T00:02:04.293Z,102059.91
2023-04-27T00:04:36.627Z,102065.34
2023-04-27T00:07:06.678Z,102067.16
2023-04-27T00:09:37.333Z,102063.53
2023-04-27T00:12:07.747Z,102067.16
2023-04-27T00:14:42.331Z,102072.59
2023-04-27T00:17:13.237Z,102071.78
2023-04-27T00:19:46.231Z,102071.78
2023-04-27T00:22:19.110Z,102065.97
2023-04-27T00:24:49.020Z,102075.03
2023-04-27T00:27:21.786Z,102061.34
2023-04-27T00:29:55.422Z,102063.34
2023-04-27T00:32:29.427Z,102060.91
2023-04-27T00:34:59.299Z,102059.31
2023-04-27T00:37:30.468Z,102062.84
2023-04-27T00:40:15.733Z,102070.69
2023-04-27T00:42:45.862Z,102063.53
2023-04-27T00:45:45.660Z,102069.47
2023-04-27T00:48:16.285Z,102063.47
2023-04-27T00:50:46.163Z,102061.75
2023-04-27T00:53:26.274Z,102066.16
2023-04-27T00:55:59.780Z,102068.19
2023-04-27T00:58:30.812Z,102068.19
2023-04-27T01:01:08.286Z,102063.97
2023-04-27T01:03:44.884Z,102061.34
2023-04-27T01:06:14.801Z,102057.72
2023-04-27T01:08:44.859Z,102056.91
2023-04-27T01:11:16.385Z,102060.31
2023-04-27T01:13:52.636Z,102062.84
2023-04-27T01:16:30.121Z,102061.75
2023-04-27T01:19:02.319Z,102057.41
2023-04-27T01:21:35.002Z,102053.78
2023-04-27T01:24:11.090Z,102052.78
2023-04-27T01:26:42.514Z,102055.41
2023-04-27T01:29:12.535Z,102054.41
2023-04-27T01:31:48.422Z,102060.34
2023-04-27T01:34:26.320Z,102062.75
2023-04-27T01:36:56.285Z,102062.63
2023-04-27T01:39:35.147Z,102055.28
2023-04-27T01:42:10.323Z,102056.78
2023-04-27T01:44:40.146Z,102063.53
2023-04-27T01:47:22.878Z,102064.22
2023-04-27T01:49:56.872Z,102064.94
2023-04-27T01:52:26.731Z,102062.91
2023-04-27T01:55:03.859Z,102049.50
2023-04-27T01:57:37.566Z,102056.38
2023-04-27T02:00:11.751Z,102056.13
2023-04-27T02:02:42.867Z,102063.09
2023-04-27T02:05:20.175Z,102065.50
2023-04-27T02:07:54.226Z,102066.19
2023-04-27T02:10:30.991Z,102065.06
2023-04-27T02:13:08.584Z,102060.53
2023-04-27T02:15:38.573Z,102054.19
2023-04-27T02:18:12.195Z,102060.94
2023-04-27T02:20:42.353Z,102063.22
2023-04-27T02:23:12.899Z,102065.53
2023-04-27T02:25:47.112Z,102060.78
2023-04-27T02:28:17.163Z,102060.47
2023-04-27T02:30:50.277Z,102062.75
2023-04-27T02:33:20.112Z,102059.94
2023-04-27T02:35:52.398Z,102066.88
2023-04-27T02:38:23.041Z,102056.31
2023-04-27T02:43:49.771Z,102055.28
2023-04-27T02:46:27.672Z,102053.28
2023-04-27T02:48:58.740Z,102047.59
2023-04-27T02:51:31.280Z,102050.00
2023-04-27T02:54:04.670Z,102049.78
2023-04-27T02:56:40.763Z,102049.34
2023-04-27T02:59:16.794Z,102050.72
2023-04-27T03:01:47.541Z,102047.78
2023-04-27T03:04:18.387Z,102048.47
2023-04-27T03:06:52.259Z,102047.47
2023-04-27T03:09:25.915Z,102044.75
2023-04-27T03:11:58.360Z,102043.84
2023-04-27T03:14:28.286Z,102046.47
2023-04-27T03:17:03.439Z,102047.25
2023-04-27T03:19:34.032Z,102038.50
2023-04-27T03:22:06.597Z,102045.44
2023-04-27T03:24:36.589Z,102045.31
2023-04-27T03:27:11.589Z,102042.63
2023-04-27T03:29:41.437Z,102043.63
2023-04-27T03:32:12.386Z,102040.09
2023-04-27T03:34:49.461Z,102039.19
2023-04-27T03:37:19.287Z,102034.78
2023-04-27T03:39:49.135Z,102044.41
2023-04-27T03:42:21.588Z,102036.59
2023-04-27T03:44:54.220Z,102044.53
2023-04-27T03:47:27.084Z,102045.44
2023-04-27T03:50:00.419Z,102036.69
2023-04-27T03:52:34.380Z,102041.03
2023-04-27T03:55:05.700Z,102040.91
2023-04-27T03:57:38.160Z,102037.19
2023-04-27T04:00:14.894Z,102037.88
2023-04-27T04:02:53.412Z,102042.16
2023-04-27T04:05:27.102Z,102042.81
2023-04-27T04:08:00.161Z,102040.00
2023-04-27T04:10:40.237Z,102038.97
2023-04-27T04:13:14.021Z,102041.56
2023-04-27T04:15:45.025Z,102043.06
2023-04-27T04:18:19.090Z,102042.06
2023-04-27T04:20:48.933Z,102051.47
2023-04-27T04:23:29.041Z,102039.91
2023-04-27T04:26:04.720Z,102045.00
2023-04-27T04:28:40.127Z,102055.38
2023-04-27T04:31:10.097Z,102053.44
2023-04-27T04:33:41.582Z,102057.84
2023-04-27T04:36:14.504Z,102056.69
2023-04-27T04:38:45.666Z,102054.31
2023-04-27T04:41:15.640Z,102058.16
2023-04-27T04:43:50.447Z,102062.25
2023-04-27T04:46:24.932Z,102075.00
2023-04-27T04:48:55.288Z,102071.28
2023-04-27T04:51:25.131Z,102070.16
2023-04-27T04:53:56.095Z,102069.78
2023-04-27T04:56:31.545Z,102067.78
2023-04-27T04:59:04.041Z,102063.16
2023-04-27T05:01:33.886Z,102064.53
2023-04-27T05:04:13.492Z,102059.84
2023-04-27T05:06:49.142Z,102061.31
2023-04-27T05:09:20.564Z,102066.09
2023-04-27T05:11:50.652Z,102061.28
2023-04-27T05:14:27.505Z,102068.72
2023-04-27T05:16:57.362Z,102072.69
2023-04-27T05:22:13.724Z,102073.06
2023-04-27T05:24:58.247Z,102075.56
2023-04-27T05:27:29.437Z,102083.16
2023-04-27T05:30:05.792Z,102085.63
2023-04-27T05:32:38.132Z,102086.63
2023-04-27T05:35:11.604Z,102086.66
2023-04-27T05:37:41.475Z,102079.50
2023-04-27T05:40:17.057Z,102077.78
2023-04-27T05:42:51.541Z,102087.63
2023-04-27T05:45:24.283Z,102076.56
2023-04-27T05:47:54.132Z,102082.97
2023-04-27T05:50:28.304Z,102077.38
2023-04-27T05:53:01.138Z,102086.59
2023-04-27T05:55:34.580Z,102088.00
2023-04-27T05:58:09.007Z,102096.34
2023-04-27T06:00:41.795Z,102089.63
2023-04-27T06:03:23.826Z,102089.16
2023-04-27T06:05:59.289Z,102083.41
2023-04-27T06:08:29.834Z,102088.63
2023-04-27T06:11:02.210Z,102084.19
2023-04-27T06:13:35.393Z,102093.09
2023-04-27T06:16:08.649Z,102080.91
2023-04-27T06:18:39.814Z,102086.28
2023-04-27T06:21:12.014Z,102082.91
2023-04-27T06:23:44.957Z,102084.72
2023-04-27T06:26:17.580Z,102082.81
2023-04-27T06:28:55.715Z,102082.72
2023-04-27T06:31:36.103Z,102082.56
2023-04-27T06:34:10.508Z,102079.66
2023-04-27T06:36:43.448Z,102088.28
2023-04-27T06:39:16.017Z,102072.13
2023-04-27T06:41:47.382Z,102072.00
2023-04-27T06:44:21.434Z,102079.13
2023-04-27T06:46:55.973Z,102075.88
2023-04-27T06:49:27.285Z,102082.25
2023-04-27T06:52:01.018Z,102069.22
2023-04-27T06:54:37.643Z,102067.97
2023-04-27T06:57:07.644Z,102067.19
2023-04-27T06:59:37.611Z,102074.72
2023-04-27T07:02:12.524Z,102062.63
2023-04-27T07:04:44.748Z,102060.31
2023-04-27T07:07:17.415Z,102055.09
2023-04-27T07:09:53.655Z,102054.97
2023-04-27T07:12:30.380Z,102061.66
2023-04-27T07:15:04.596Z,102061.13
2023-04-27T07:17:39.374Z,102060.72
2023-04-27T07:20:11.017Z,102059.88
2023-04-27T07:22:40.824Z,102062.47
2023-04-27T07:25:14.017Z,102049.88
2023-04-27T07:27:52.678Z,102053.00
2023-04-27T07:30:32.074Z,102051.00
2023-04-27T07:33:06.267Z,102056.25
2023-04-27T07:35:40.153Z,102060.97
2023-04-27T07:38:13.929Z,102064.03
2023-04-27T07:40:48.247Z,102066.81
2023-04-27T07:43:18.657Z,102054.19
2023-04-27T07:45:51.619Z,102060.19
2023-04-27T07:48:25.931Z,102072.06
2023-04-27T07:50:56.976Z,102064.63
2023-04-27T07:53:29.181Z,102063.63
2023-04-27T07:56:00.121Z,102069.53
2023-04-27T07:58:34.666Z,102066.59
2023-04-27T08:01:06.790Z,102058.41
2023-04-27T08:03:42.672Z,102052.00
2023-04-27T08:06:16.305Z,102056.09
2023-04-27T08:08:50.666Z,102065.28
2023-04-27T08:11:20.521Z,102061.97
2023-04-27T08:13:50.329Z,102066.41
2023-04-27T08:16:21.742Z,102056.38
2023-04-27T08:18:54.997Z,102063.00
2023-04-27T08:21:41.990Z,102059.16
2023-04-27T08:24:12.991Z,102056.38
2023-04-27T08:26:46.417Z,102057.28
2023-04-27T08:29:27.848Z,102044.91
2023-04-27T08:32:06.035Z,102049.22
2023-04-27T08:34:42.042Z,102054.19
2023-04-27T08:37:13.028Z,102063.63
2023-04-27T08:39:48.554Z,102060.72
2023-04-27T08:42:23.782Z,102063.13
2023-04-27T08:44:53.646Z,102060.47
2023-04-27T08:47:39.083Z,102057.00
2023-04-27T08:50:36.009Z,102068.03
2023-04-27T08:53:11.388Z,102067.88
2023-04-27T08:55:41.225Z,102075.63
2023-04-27T08:58:11.102Z,102069.25
2023-04-27T09:01:02.480Z,102071.84
2023-04-27T09:03:32.410Z,102076.34
2023-04-27T09:06:08.201Z,102078.09
2023-04-27T09:08:51.310Z,102080.75
2023-04-27T09:11:35.123Z,102077.47
2023-04-27T09:14:07.374Z,102081.19
2023-04-27T09:16:41.887Z,102075.72
2023-04-27T09:19:13.521Z,102085.28
2023-04-27T09:21:51.954Z,102083.38
2023-04-27T09:24:24.545Z,102084.75
2023-04-27T09:27:07.112Z,102087.94
2023-04-27T09:29:42.139Z,102087.06
2023-04-27T09:35:09.664Z,102086.91
2023-04-27T09:37:44.421Z,102085.19
2023-04-27T09:40:32.546Z,102085.81
2023-04-27T09:43:04.529Z,102090.13
2023-04-27T09:45:42.228Z,102096.91
2023-04-27T09:48:19.833Z,102101.81
2023-04-27T09:50:49.646Z,102091.84
2023-04-27T09:53:28.388Z,102089.91
2023-04-27T09:56:14.230Z,102089.06
2023-04-27T09:59:17.288Z,102091.94
2023-04-27T10:01:54.461Z,102092.28
2023-04-27T10:04:50.463Z,102096.88
2023-04-27T10:07:24.597Z,102089.34
2023-04-27T10:10:02.728Z,102077.38
2023-04-27T10:12:41.376Z,102089.00
2023-04-27T10:15:28.920Z,102080.53
2023-04-27T10:18:00.034Z,102082.44
2023-04-27T10:20:34.658Z,102078.22
2023-04-27T10:23:04.772Z,102083.75
2023-04-27T10:25:45.992Z,102083.75
2023-04-27T10:28:24.287Z,102085.50
2023-04-27T10:30:57.143Z,102081.84
2023-04-27T10:33:27.076Z,102079.13
2023-04-27T10:36:03.129Z,102071.13
2023-04-27T10:38:36.703Z,102070.22
2023-04-27T10:41:20.836Z,102075.16
2023-04-27T10:43:54.458Z,102068.00
2023-04-27T10:46:42.169Z,102073.09
2023-04-27T10:49:18.077Z,102071.94
2023-04-27T10:51:48.039Z,102064.69
2023-04-27T10:54:17.914Z,102074.28
2023-04-27T10:56:52.617Z,102074.22
2023-04-27T10:59:28.055Z,102072.34
2023-04-27T11:01:58.294Z,102076.44
2023-04-27T11:07:34.290Z,102087.19
2023-04-27T11:10:10.268Z,102087.59
2023-04-27T11:12:55.996Z,102081.75
2023-04-27T11:15:26.564Z,102078.84
2023-04-27T11:18:11.039Z,102083.81
2023-04-27T11:20:46.120Z,102087.94
2023-04-27T11:23:29.581Z,102091.06
2023-04-27T11:26:12.490Z,102084.41
2023-04-27T11:29:07.994Z,102097.81
2023-04-27T11:31:47.842Z,102091.19
2023-04-27T11:34:28.181Z,102091.63
2023-04-27T11:37:17.376Z,102092.06
2023-04-27T11:39:48.880Z,102089.19
2023-04-27T11:42:27.691Z,102086.31
2023-04-27T11:45:01.502Z,102093.25
2023-04-27T11:47:34.049Z,102096.56
2023-04-27T11:50:09.923Z,102094.59
2023-04-27T11:52:44.933Z,102093.59
2023-04-27T11:55:16.425Z,102090.22
2023-04-27T11:57:46.456Z,102098.97
2023-04-27T12:00:24.762Z,102092.78
2023-04-27T12:02:54.657Z,102092.09
2023-04-27T12:05:32.132Z,102094.16
2023-04-27T12:08:02.293Z,102096.25
2023-04-27T12:10:35.124Z,102090.44
2023-04-27T12:13:05.139Z,102095.75
2023-04-27T12:15:37.556Z,102087.94
2023-04-27T12:18:10.616Z,102096.81
2023-04-27T12:20:45.523Z,102096.88
2023-04-27T12:23:15.344Z,102090.88
2023-04-27T12:25:45.948Z,102085.81
2023-04-27T12:28:19.233Z,102084.41
2023-04-27T12:30:55.227Z,102090.88
2023-04-27T12:33:27.735Z,102077.09
2023-04-27T12:35:58.699Z,102084.63
2023-04-27T12:38:30.633Z,102090.44
2023-04-27T12:41:08.316Z,102085.44
2023-04-27T12:43:46.069Z,102076.25
2023-04-27T12:46:20.152Z,102074.91
2023-04-27T12:48:57.213Z,102076.06
2023-04-27T12:51:34.599Z,102075.75
2023-04-27T12:54:14.526Z,102074.47
2023-04-27T12:56:44.919Z,102068.09
2023-04-27T12:59:39.243Z,102063.25
2023-04-27T13:02:12.615Z,102058.34
2023-04-27T13:04:42.508Z,102060.38
2023-04-27T13:07:15.738Z,102056.34
2023-04-27T13:09:47.160Z,102063.34
2023-04-27T13:12:19.252Z,102060.75
2023-04-27T13:14:53.108Z,102059.94
2023-04-27T13:17:29.330Z,102062.75
2023-04-27T13:20:00.514Z,102052.19
2023-04-27T13:22:40.926Z,102060.97
2023-04-27T13:25:22.209Z,102060.19
2023-04-27T13:27:52.107Z,102055.69
2023-04-27T13:30:24.527Z,102059.31
2023-04-27T13:33:07.168Z,102054.84
2023-04-27T13:35:41.931Z,102064.31
2023-04-27T13:38:17.480Z,102054.72
2023-04-27T13:40:51.344Z,102061.16
2023-04-27T13:43:22.780Z,102054.72
2023-04-27T13:45:55.431Z,102049.19
2023-04-27T13:48:43.677Z,102053.06
2023-04-27T13:51:13.550Z,102052.69
2023-04-27T13:53:48.318Z,102046.69
2023-04-27T13:56:23.656Z,102051.69
2023-04-27T13:58:53.463Z,102042.84
2023-04-27T14:01:27.056Z,102046.34
2023-04-27T14:04:05.685Z,102036.78
2023-04-27T14:06:39.130Z,102034.31
2023-04-27T14:09:09.508Z,102033.53
2023-04-27T14:11:52.891Z,102032.63
2023-04-27T14:14:29.930Z,102030.16
2023-04-27T14:16:59.879Z,102018.97
2023-04-27T14:19:32.474Z,102013.84
2023-04-27T14:22:04.734Z,102013.56
2023-04-27T14:24:43.958Z,102015.19
2023-04-27T14:27:16.972Z,102018.97
2023-04-27T14:29:50.860Z,102012.09
2023-04-27T14:32:23.960Z,102011.31
2023-04-27T14:34:59.237Z,102013.38
2023-04-27T14:37:32.721Z,102014.34
2023-04-27T14:40:04.686Z,102014.59
2023-04-27T14:42:38.436Z,102018.63
2023-04-27T14:45:21.695Z,102017.69
2023-04-27T14:47:56.410Z,102013.50
2023-04-27T14:50:28.889Z,102010.88
2023-04-27T14:52:59.121Z,102017.94
2023-04-27T14:55:37.098Z,102016.97
2023-04-27T14:58:06.908Z,102012.41
2023-04-27T15:00:38.998Z,102016.44
2023-04-27T15:03:17.174Z,102017.94
2023-04-27T15:05:56.702Z,102027.53
2023-04-27T15:08:31.290Z,102022.44
2023-04-27T15:11:06.990Z,102020.56
2023-04-27T15:13:43.665Z,102029.13
2023-04-27T15:18:58.305Z,102026.97
2023-04-27T15:21:33.377Z,102020.59
2023-04-27T15:24:06.792Z,102021.09
2023-04-27T15:26:36.637Z,102014.91
2023-04-27T15:29:07.360Z,102009.22
2023-04-27T15:31:40.343Z,102002.78
2023-04-27T15:34:14.384Z,102000.97
2023-04-27T15:36:53.777Z,102009.22
2023-04-27T15:39:31.200Z,101993.69
2023-04-27T15:42:03.381Z,101997.31
2023-04-27T15:44:33.237Z,101992.94
2023-04-27T15:47:05.489Z,101994.63
2023-04-27T15:49:53.461Z,101979.44
2023-04-27T15:52:32.657Z,101978.75
2023-04-27T15:55:04.436Z,101978.47
2023-04-27T15:57:35.418Z,101971.81
2023-04-27T16:00:10.628Z,101975.09
2023-04-27T16:02:42.081Z,101970.09
2023-04-27T16:05:15.788Z,101970.84
2023-04-27T16:07:48.625Z,101968.28
2023-04-27T16:10:19.196Z,101963.63
2023-04-27T16:12:48.950Z,101961.38
2023-04-27T16:15:25.025Z,101967.56
2023-04-27T16:17:54.976Z,101965.00
2023-04-27T16:20:29.102Z,101967.72
2023-04-27T16:23:01.684Z,101968.75
2023-04-27T16:25:31.579Z,101969.09
2023-04-27T16:28:04.414Z,101964.25
2023-04-27T16:30:37.539Z,101958.94
2023-04-27T16:33:07.476Z,101957.78
2023-04-27T16:35:40.508Z,101960.38
2023-04-27T16:38:12.906Z,101948.75
2023-04-27T16:40:44.049Z,101945.31
2023-04-27T16:43:24.102Z,101956.47
2023-04-27T16:46:00.252Z,101948.47
2023-04-27T16:48:31.463Z,101954.78
2023-04-27T16:51:02.448Z,101954.03
2023-04-27T16:53:36.067Z,101949.09
2023-04-27T16:56:06.210Z,101948.03
2023-04-27T16:58:37.378Z,101945.00
2023-04-27T17:01:07.586Z,101949.38
2023-04-27T17:03:42.150Z,101943.81
2023-04-27T17:06:16.776Z,101949.09
2023-04-27T17:08:56.471Z,101947.88
2023-04-27T17:11:31.984Z,101946.09
2023-04-27T17:14:03.017Z,101945.06
2023-04-27T17:16:33.993Z,101935.19
2023-04-27T17:19:04.167Z,101935.19
2023-04-27T17:21:39.370Z,101936.59
2023-04-27T17:24:12.948Z,101933.72
2023-04-27T17:26:42.720Z,101934.81
2023-04-27T17:29:27.721Z,101925.03
2023-04-27T17:32:05.266Z,101927.16
2023-04-27T17:34:42.980Z,101923.78
2023-04-27T17:37:16.870Z,101922.69
2023-04-27T17:39:58.272Z,101920.00
2023-04-27T17:42:30.017Z,101912.25
2023-04-27T17:45:02.000Z,101918.50
2023-04-27T17:47:32.433Z,101912.47
2023-04-27T17:50:02.236Z,101905.31
2023-04-27T17:52:32.105Z,101901.75
2023-04-27T17:55:04.583Z,101902.38
2023-04-27T17:57:34.547Z,101899.41
2023-04-27T18:00:09.636Z,101907.63
2023-04-27T18:02:52.787Z,101908.78
2023-04-27T18:05:24.898Z,101906.28
2023-04-27T18:07:57.924Z,101910.41
2023-04-27T18:10:30.339Z,101913.38
2023-04-27T18:13:06.114Z,101910.00
2023-04-27T18:15:45.281Z,101903.66
2023-04-27T18:18:19.231Z,101909.84
2023-04-27T18:20:55.809Z,101901.22
2023-04-27T18:23:45.128Z,101903.03
2023-04-27T18:26:23.215Z,101900.00
2023-04-27T18:28:55.796Z,101896.13
2023-04-27T18:31:31.133Z,101897.47
2023-04-27T18:34:00.951Z,101901.56
2023-04-27T18:36:35.089Z,101906.56
2023-04-27T18:39:07.251Z,101909.44
2023-04-27T18:41:51.207Z,101904.00
2023-04-27T18:44:30.575Z,101906.94
2023-04-27T18:47:03.713Z,101899.75
2023-04-27T18:49:36.636Z,101904.25
2023-04-27T18:52:07.772Z,101904.16
2023-04-27T18:54:45.638Z,101911.88
2023-04-27T18:57:22.806Z,101914.97
2023-04-27T18:59:54.060Z,101913.34
2023-04-27T19:02:25.454Z,101914.41
2023-04-27T19:05:11.274Z,101915.31
2023-04-27T19:07:43.228Z,101914.41
2023-04-27T19:10:13.826Z,101914.41
2023-04-27T19:12:46.249Z,101909.88
2023-04-27T19:15:16.158Z,101902.84
2023-04-27T19:17:52.791Z,101902.84
2023-04-27T19:20:28.236Z,101897.06
2023-04-27T19:22:58.125Z,101910.13
2023-04-27T19:28:21.566Z,101903.53
2023-04-27T19:30:54.763Z,101908.88
2023-04-27T19:33:27.142Z,101907.97
2023-04-27T19:36:01.659Z,101921.16
2023-04-27T19:38:31.564Z,101913.38
2023-04-27T19:41:12.763Z,101908.13
2023-04-27T19:43:49.557Z,101902.16
2023-04-27T19:46:19.480Z,101903.00
2023-04-27T19:48:52.035Z,101908.03
2023-04-27T19:51:24.557Z,101903.63
2023-04-27T19:53:54.372Z,101909.69
2023-04-27T19:56:29.761Z,101905.91
2023-04-27T19:59:04.232Z,101887.53
2023-04-27T20:01:34.226Z,101896.22
2023-04-27T20:04:06.765Z,101884.81
2023-04-27T20:06:43.713Z,101884.66
2023-04-27T20:09:21.062Z,101882.94
2023-04-27T20:11:55.119Z,101888.81
2023-04-27T20:14:36.261Z,101889.63
2023-04-27T20:17:08.862Z,101892.25
2023-04-27T20:19:40.865Z,101876.25
2023-04-27T20:22:19.340Z,101871.91
2023-04-27T20:24:52.562Z,101877.25
2023-04-27T20:27:22.392Z,101875.41
2023-04-27T20:29:54.870Z,101882.50
2023-04-27T20:32:24.760Z,101870.16
2023-04-27T20:35:01.398Z,101867.31
2023-04-27T20:37:32.585Z,101869.75
2023-04-27T20:40:03.814Z,101863.59
2023-04-27T20:42:37.294Z,101874.19
2023-04-27T20:45:16.324Z,101871.56
2023-04-27T20:47:50.317Z,101868.56
2023-04-27T20:50:21.877Z,101864.91
2023-04-27T20:52:54.599Z,101860.47
2023-04-27T20:55:27.234Z,101855.59
2023-04-27T20:57:57.464Z,101847.13
2023-04-27T21:00:33.760Z,101848.63
2023-04-27T21:03:10.014Z,101851.09
2023-04-27T21:05:45.018Z,101839.81
2023-04-27T21:08:21.002Z,101855.44
2023-04-27T21:10:50.791Z,101846.88
2023-04-27T21:13:20.580Z,101840.63
2023-04-27T21:15:53.015Z,101839.88
2023-04-27T21:18:30.350Z,101831.28
2023-04-27T21:21:07.134Z,101841.59
2023-04-27T21:23:37.473Z,101835.00
2023-04-27T21:26:13.948Z,101826.97
2023-04-27T21:28:44.259Z,101822.50
2023-04-27T21:31:17.734Z,101815.75
2023-04-27T21:33:53.222Z,101821.06
2023-04-27T21:36:23.857Z,101816.75
2023-04-27T21:38:53.652Z,101809.06
2023-04-27T21:41:26.441Z,101811.56
2023-04-27T21:43:57.776Z,101805.34
2023-04-27T21:46:34.592Z,101796.09
2023-04-27T21:49:07.362Z,101798.94
2023-04-27T21:51:38.430Z,101795.22
2023-04-27T21:54:08.555Z,101789.06
2023-04-27T21:56:39.629Z,101796.28
2023-04-27T21:59:09.446Z,101792.09
2023-04-27T22:01:43.178Z,101791.59
2023-04-27T22:04:17.140Z,101793.38
2023-04-27T22:06:55.293Z,101782.81
2023-04-27T22:09:25.089Z,101793.94
2023-04-27T22:11:57.651Z,101780.56
2023-04-27T22:14:42.215Z,101779.97
2023-04-27T22:17:21.601Z,101785.75
2023-04-27T22:19:58.620Z,101773.25
2023-04-27T22:22:31.013Z,101761.91
2023-04-27T22:25:00.997Z,101762.78
2023-04-27T22:27:44.137Z,101763.81
2023-04-27T22:30:16.878Z,101766.94
2023-04-27T22:32:49.436Z,101766.47
2023-04-27T22:35:27.172Z,101756.81
2023-04-27T22:37:57.915Z,101759.34
2023-04-27T22:40:30.561Z,101749.66
2023-04-27T22:43:00.709Z,101747.53
2023-04-27T22:45:38.023Z,101748.63
2023-04-27T22:48:11.401Z,101747.75
2023-04-27T22:50:45.428Z,101744.34
2023-04-27T22:53:15.270Z,101750.47
2023-04-27T22:55:45.220Z,101735.91
2023-04-27T22:58:14.998Z,101737.00
2023-04-27T23:00:46.082Z,101739.19
2023-04-27T23:03:22.964Z,101744.13
2023-04-27T23:06:01.056Z,101736.28
2023-04-27T23:08:41.173Z,101741.69
2023-04-27T23:11:13.878Z,101730.41
2023-04-27T23:13:44.210Z,101738.06
2023-04-27T23:16:17.772Z,101738.00
2023-04-27T23:18:55.622Z,101738.78
2023-04-27T23:21:25.437Z,101728.44
2023-04-27T23:23:57.879Z,101727.53
2023-04-27T23:26:27.660Z,101728.50
2023-04-27T23:29:00.255Z,101715.25
2023-04-27T23:31:33.497Z,101721.91
2023-04-27T23:34:08.580Z,101721.91
2023-04-27T23:36:41.947Z,101717.56
2023-04-27T23:39:13.330Z,101721.91
2023-04-27T23:41:47.387Z,101716.50
2023-04-27T23:44:32.083Z,101697.00
2023-04-27T23:47:04.654Z,101711.69
2023-04-27T23:49:39.332Z,101710.47
2023-04-27T23:52:15.091Z,101702.44
2023-04-27T23:54:48.864Z,101698.00
2023-04-27T23:57:24.072Z,101695.84
2023-04-27T23:59:53.887Z,101692.81
